Abingdon, Illinois
Current Conditions -  °F | °C
As of 6:55 AM on Friday 31 Oct 2014 (Local Time) from KGBG Reporting Station
Clear Clear  
Wind Chill: 22°   Ceiling: Unl
Heat Index: 33°   Visibility: 10mi
Dew Point: 23°   Wind: 20mph
Humidity: 67%   Direction: 320°NW
Pressure: 30.24"   Gusts: 25mph
Location:  40.8°N, 90.4°W
Report Text: KGBG 311155Z AUTO 32017G22KT 10SM CLR 01/M05 A3024 RMK AO2 T00081048 10076 20008
Loading
Personal Weather Stations






























Interactive Weather Map
Tropical Storm Tracking
New forecast layout! Learn more

10-Day Weather Forecast

Advertisements
Track Severe Weather on mobile